Terminal Aerodrome Forecast
Issued by NWS Sioux Falls, SD

Home | Current Version | Previous Version | Graphics & Text | Print | Product List | Glossary Off
Versions: 1 2 3 4 5 6 7 8 9 10 11 12 13 14

000
FTUS43 KFSD 212320
TAFFSD
TAF
KFSD 212320Z 2200/2224 16011KT P6SM FEW040
     FM220200 15013KT P6SM SKC WS017/19050KT
     FM221100 17012KT P6SM FEW120
     FM221500 18019G29KT P6SM FEW120=

USA.gov is the U.S. government's official web portal to all federal, state and local government web resources and services.